sensor_id;sensor_type;location;lat;lon;timestamp;temperature;humidity
11965;DHT22;6042;41.326;19.826;2023-08-21T00:00:07;30.00;91.30
11965;DHT22;6042;41.326;19.826;2023-08-21T00:02:37;30.10;90.20
11965;DHT22;6042;41.326;19.826;2023-08-21T00:05:07;30.30;89.00
11965;DHT22;6042;41.326;19.826;2023-08-21T00:07:36;30.30;89.50
11965;DHT22;6042;41.326;19.826;2023-08-21T00:10:05;30.40;88.90
11965;DHT22;6042;41.326;19.826;2023-08-21T00:12:34;30.40;86.70
11965;DHT22;6042;41.326;19.826;2023-08-21T00:15:04;30.50;86.40
11965;DHT22;6042;41.326;19.826;2023-08-21T00:17:34;30.50;86.00
11965;DHT22;6042;41.326;19.826;2023-08-21T00:20:02;30.40;86.00
11965;DHT22;6042;41.326;19.826;2023-08-21T00:22:31;30.20;86.10
11965;DHT22;6042;41.326;19.826;2023-08-21T00:24:59;30.00;86.90
11965;DHT22;6042;41.326;19.826;2023-08-21T00:27:28;30.10;86.60
11965;DHT22;6042;41.326;19.826;2023-08-21T00:29:57;30.00;86.60
11965;DHT22;6042;41.326;19.826;2023-08-21T00:32:25;29.60;86.80
11965;DHT22;6042;41.326;19.826;2023-08-21T00:34:55;29.40;87.40
11965;DHT22;6042;41.326;19.826;2023-08-21T00:37:24;29.30;86.40
11965;DHT22;6042;41.326;19.826;2023-08-21T00:39:52;29.60;86.50
11965;DHT22;6042;41.326;19.826;2023-08-21T00:42:21;29.70;85.70
11965;DHT22;6042;41.326;19.826;2023-08-21T00:44:49;30.00;86.10
11965;DHT22;6042;41.326;19.826;2023-08-21T00:47:18;30.20;85.80
11965;DHT22;6042;41.326;19.826;2023-08-21T00:49:47;30.30;86.70
11965;DHT22;6042;41.326;19.826;2023-08-21T00:52:17;30.40;86.80
11965;DHT22;6042;41.326;19.826;2023-08-21T00:54:46;30.30;85.20
11965;DHT22;6042;41.326;19.826;2023-08-21T00:57:15;30.20;85.00
11965;DHT22;6042;41.326;19.826;2023-08-21T00:59:43;30.20;86.60
11965;DHT22;6042;41.326;19.826;2023-08-21T01:02:11;30.10;86.70
11965;DHT22;6042;41.326;19.826;2023-08-21T01:04:41;30.10;85.10
11965;DHT22;6042;41.326;19.826;2023-08-21T01:07:10;30.00;84.40
11965;DHT22;6042;41.326;19.826;2023-08-21T01:09:45;30.00;85.10
11965;DHT22;6042;41.326;19.826;2023-08-21T01:12:19;29.90;85.40
11965;DHT22;6042;41.326;19.826;2023-08-21T01:14:57;29.80;84.70
11965;DHT22;6042;41.326;19.826;2023-08-21T01:17:29;29.80;84.90
11965;DHT22;6042;41.326;19.826;2023-08-21T01:19:58;29.70;85.70
11965;DHT22;6042;41.326;19.826;2023-08-21T01:22:34;29.60;85.30
11965;DHT22;6042;41.326;19.826;2023-08-21T01:25:07;29.50;85.70
11965;DHT22;6042;41.326;19.826;2023-08-21T01:27:40;29.90;85.10
11965;DHT22;6042;41.326;19.826;2023-08-21T01:30:09;30.00;84.40
11965;DHT22;6042;41.326;19.826;2023-08-21T01:32:43;30.20;84.60
11965;DHT22;6042;41.326;19.826;2023-08-21T01:35:14;30.30;85.00
11965;DHT22;6042;41.326;19.826;2023-08-21T01:37:44;30.40;84.20
11965;DHT22;6042;41.326;19.826;2023-08-21T01:40:20;30.50;83.60
11965;DHT22;6042;41.326;19.826;2023-08-21T01:42:49;30.50;84.70
11965;DHT22;6042;41.326;19.826;2023-08-21T01:45:18;30.20;85.30
11965;DHT22;6042;41.326;19.826;2023-08-21T01:47:46;30.50;83.90
11965;DHT22;6042;41.326;19.826;2023-08-21T01:50:15;30.40;84.00
11965;DHT22;6042;41.326;19.826;2023-08-21T01:52:43;30.50;83.30
11965;DHT22;6042;41.326;19.826;2023-08-21T01:55:13;30.60;82.30
11965;DHT22;6042;41.326;19.826;2023-08-21T01:57:42;30.60;81.50
11965;DHT22;6042;41.326;19.826;2023-08-21T02:00:12;30.60;81.50
11965;DHT22;6042;41.326;19.826;2023-08-21T02:02:41;30.50;81.60
11965;DHT22;6042;41.326;19.826;2023-08-21T02:05:10;30.60;81.40
11965;DHT22;6042;41.326;19.826;2023-08-21T02:07:38;30.60;82.20
11965;DHT22;6042;41.326;19.826;2023-08-21T02:10:08;30.50;80.60
11965;DHT22;6042;41.326;19.826;2023-08-21T02:12:38;30.70;81.70
11965;DHT22;6042;41.326;19.826;2023-08-21T02:15:09;30.60;82.20
11965;DHT22;6042;41.326;19.826;2023-08-21T02:17:39;30.50;79.90
11965;DHT22;6042;41.326;19.826;2023-08-21T02:20:12;30.60;80.60
11965;DHT22;6042;41.326;19.826;2023-08-21T02:22:40;30.50;80.70
11965;DHT22;6042;41.326;19.826;2023-08-21T02:25:09;30.50;79.40
11965;DHT22;6042;41.326;19.826;2023-08-21T02:27:38;30.50;80.00
11965;DHT22;6042;41.326;19.826;2023-08-21T02:30:07;30.50;80.40
11965;DHT22;6042;41.326;19.826;2023-08-21T02:32:36;30.70;78.20
11965;DHT22;6042;41.326;19.826;2023-08-21T02:35:06;30.80;77.80
11965;DHT22;6042;41.326;19.826;2023-08-21T02:37:35;30.90;78.30
11965;DHT22;6042;41.326;19.826;2023-08-21T02:40:07;30.80;79.10
11965;DHT22;6042;41.326;19.826;2023-08-21T02:42:38;30.80;76.70
11965;DHT22;6042;41.326;19.826;2023-08-21T02:45:07;30.70;79.20
11965;DHT22;6042;41.326;19.826;2023-08-21T02:47:37;30.30;79.00
11965;DHT22;6042;41.326;19.826;2023-08-21T02:50:06;30.10;79.50
11965;DHT22;6042;41.326;19.826;2023-08-21T02:52:36;30.10;79.10
11965;DHT22;6042;41.326;19.826;2023-08-21T02:55:05;30.10;79.30
11965;DHT22;6042;41.326;19.826;2023-08-21T02:57:34;30.10;86.20
11965;DHT22;6042;41.326;19.826;2023-08-21T03:00:06;29.90;86.80
11965;DHT22;6042;41.326;19.826;2023-08-21T03:02:35;29.80;85.40
11965;DHT22;6042;41.326;19.826;2023-08-21T03:05:05;29.80;85.50
11965;DHT22;6042;41.326;19.826;2023-08-21T03:07:35;29.70;83.90
11965;DHT22;6042;41.326;19.826;2023-08-21T03:10:05;29.90;83.60
11965;DHT22;6042;41.326;19.826;2023-08-21T03:12:33;30.00;82.50
11965;DHT22;6042;41.326;19.826;2023-08-21T03:15:05;30.20;81.20
11965;DHT22;6042;41.326;19.826;2023-08-21T03:17:34;30.30;82.60
11965;DHT22;6042;41.326;19.826;2023-08-21T03:20:03;30.20;80.10
11965;DHT22;6042;41.326;19.826;2023-08-21T03:22:33;30.30;79.50
11965;DHT22;6042;41.326;19.826;2023-08-21T03:25:02;30.20;82.30
11965;DHT22;6042;41.326;19.826;2023-08-21T03:27:31;30.00;81.30
11965;DHT22;6042;41.326;19.826;2023-08-21T03:29:59;30.00;79.20
11965;DHT22;6042;41.326;19.826;2023-08-21T03:32:30;30.00;76.40
11965;DHT22;6042;41.326;19.826;2023-08-21T03:34:59;30.20;75.20
11965;DHT22;6042;41.326;19.826;2023-08-21T03:37:27;30.30;76.30
11965;DHT22;6042;41.326;19.826;2023-08-21T03:39:56;30.10;79.10
11965;DHT22;6042;41.326;19.826;2023-08-21T03:42:25;29.80;77.90
11965;DHT22;6042;41.326;19.826;2023-08-21T03:44:53;29.80;77.60
11965;DHT22;6042;41.326;19.826;2023-08-21T03:47:21;29.80;77.20
11965;DHT22;6042;41.326;19.826;2023-08-21T03:49:59;30.00;77.40
11965;DHT22;6042;41.326;19.826;2023-08-21T03:52:28;30.00;76.70
11965;DHT22;6042;41.326;19.826;2023-08-21T03:54:56;30.00;77.20
11965;DHT22;6042;41.326;19.826;2023-08-21T03:57:24;29.90;77.40
11965;DHT22;6042;41.326;19.826;2023-08-21T03:59:53;29.90;78.60
11965;DHT22;6042;41.326;19.826;2023-08-21T04:02:21;29.80;77.80
11965;DHT22;6042;41.326;19.826;2023-08-21T04:04:52;29.80;76.50
11965;DHT22;6042;41.326;19.826;2023-08-21T04:07:23;30.00;77.10
11965;DHT22;6042;41.326;19.826;2023-08-21T04:09:52;30.10;74.80
11965;DHT22;6042;41.326;19.826;2023-08-21T04:12:20;30.20;76.10
11965;DHT22;6042;41.326;19.826;2023-08-21T04:14:49;30.10;77.80
11965;DHT22;6042;41.326;19.826;2023-08-21T04:17:20;29.90;78.00
11965;DHT22;6042;41.326;19.826;2023-08-21T04:19:50;29.90;80.30
11965;DHT22;6042;41.326;19.826;2023-08-21T04:22:18;29.60;81.00
11965;DHT22;6042;41.326;19.826;2023-08-21T04:24:48;29.40;81.10
11965;DHT22;6042;41.326;19.826;2023-08-21T04:27:17;29.30;82.30
11965;DHT22;6042;41.326;19.826;2023-08-21T04:29:45;29.20;82.00
11965;DHT22;6042;41.326;19.826;2023-08-21T04:32:14;29.20;80.10
11965;DHT22;6042;41.326;19.826;2023-08-21T04:34:45;29.40;80.60
11965;DHT22;6042;41.326;19.826;2023-08-21T04:37:14;29.40;80.80
11965;DHT22;6042;41.326;19.826;2023-08-21T04:39:42;29.50;78.50
11965;DHT22;6042;41.326;19.826;2023-08-21T04:42:14;29.70;76.70
11965;DHT22;6042;41.326;19.826;2023-08-21T04:44:42;29.80;78.40
11965;DHT22;6042;41.326;19.826;2023-08-21T04:47:22;29.60;80.70
11965;DHT22;6042;41.326;19.826;2023-08-21T04:49:54;29.60;79.20
11965;DHT22;6042;41.326;19.826;2023-08-21T04:52:24;29.50;79.10
11965;DHT22;6042;41.326;19.826;2023-08-21T04:54:53;29.50;82.00
11965;DHT22;6042;41.326;19.826;2023-08-21T04:57:23;29.40;81.50
11965;DHT22;6042;41.326;19.826;2023-08-21T04:59:52;29.40;78.40
11965;DHT22;6042;41.326;19.826;2023-08-21T05:02:22;29.80;82.00
11965;DHT22;6042;41.326;19.826;2023-08-21T05:04:51;29.90;81.30
11965;DHT22;6042;41.326;19.826;2023-08-21T05:07:20;29.70;80.60
11965;DHT22;6042;41.326;19.826;2023-08-21T05:09:48;29.60;84.60
11965;DHT22;6042;41.326;19.826;2023-08-21T05:12:20;29.40;85.20
11965;DHT22;6042;41.326;19.826;2023-08-21T05:14:50;29.50;84.10
11965;DHT22;6042;41.326;19.826;2023-08-21T05:17:19;29.50;84.60
11965;DHT22;6042;41.326;19.826;2023-08-21T05:19:47;29.60;80.70
11965;DHT22;6042;41.326;19.826;2023-08-21T05:22:17;29.70;80.30
11965;DHT22;6042;41.326;19.826;2023-08-21T05:24:47;30.00;80.00
11965;DHT22;6042;41.326;19.826;2023-08-21T05:27:15;30.00;82.90
11965;DHT22;6042;41.326;19.826;2023-08-21T05:29:43;30.00;79.80
11965;DHT22;6042;41.326;19.826;2023-08-21T05:32:14;30.10;79.10
11965;DHT22;6042;41.326;19.826;2023-08-21T05:34:43;30.20;80.70
11965;DHT22;6042;41.326;19.826;2023-08-21T05:37:12;30.30;80.70
11965;DHT22;6042;41.326;19.826;2023-08-21T05:39:40;30.30;79.20
11965;DHT22;6042;41.326;19.826;2023-08-21T05:42:09;30.40;79.40
11965;DHT22;6042;41.326;19.826;2023-08-21T05:44:37;30.50;78.40
11965;DHT22;6042;41.326;19.826;2023-08-21T05:47:07;30.70;78.70
11965;DHT22;6042;41.326;19.826;2023-08-21T05:49:37;30.70;78.30
11965;DHT22;6042;41.326;19.826;2023-08-21T05:52:05;30.90;76.90
11965;DHT22;6042;41.326;19.826;2023-08-21T05:54:34;30.90;76.50
11965;DHT22;6042;41.326;19.826;2023-08-21T05:57:03;31.10;76.40
11965;DHT22;6042;41.326;19.826;2023-08-21T05:59:32;31.20;76.10
11965;DHT22;6042;41.326;19.826;2023-08-21T06:02:02;31.20;74.90
11965;DHT22;6042;41.326;19.826;2023-08-21T06:04:31;31.20;73.70
11965;DHT22;6042;41.326;19.826;2023-08-21T06:07:03;31.30;76.20
11965;DHT22;6042;41.326;19.826;2023-08-21T06:09:31;31.40;75.30
11965;DHT22;6042;41.326;19.826;2023-08-21T06:12:01;31.50;74.60
11965;DHT22;6042;41.326;19.826;2023-08-21T06:14:31;31.60;75.30
11965;DHT22;6042;41.326;19.826;2023-08-21T06:17:01;31.80;75.20
11965;DHT22;6042;41.326;19.826;2023-08-21T06:19:30;31.80;76.30
11965;DHT22;6042;41.326;19.826;2023-08-21T06:21:59;31.80;76.50
11965;DHT22;6042;41.326;19.826;2023-08-21T06:24:29;31.90;74.80
11965;DHT22;6042;41.326;19.826;2023-08-21T06:27:01;32.00;73.20
11965;DHT22;6042;41.326;19.826;2023-08-21T06:29:34;32.10;74.20
11965;DHT22;6042;41.326;19.826;2023-08-21T06:32:02;32.30;73.40
11965;DHT22;6042;41.326;19.826;2023-08-21T06:34:31;32.70;71.20
11965;DHT22;6042;41.326;19.826;2023-08-21T06:37:00;32.80;70.40
11965;DHT22;6042;41.326;19.826;2023-08-21T06:39:30;32.80;72.10
11965;DHT22;6042;41.326;19.826;2023-08-21T06:41:58;32.80;70.90
11965;DHT22;6042;41.326;19.826;2023-08-21T06:44:35;32.80;69.70
11965;DHT22;6042;41.326;19.826;2023-08-21T06:47:04;32.90;70.20
11965;DHT22;6042;41.326;19.826;2023-08-21T06:49:32;33.00;69.60
11965;DHT22;6042;41.326;19.826;2023-08-21T06:52:01;33.10;69.10
11965;DHT22;6042;41.326;19.826;2023-08-21T06:54:32;33.20;68.20
11965;DHT22;6042;41.326;19.826;2023-08-21T06:57:00;33.30;69.40
11965;DHT22;6042;41.326;19.826;2023-08-21T06:59:29;33.30;67.00
11965;DHT22;6042;41.326;19.826;2023-08-21T07:02:00;33.40;66.90
11965;DHT22;6042;41.326;19.826;2023-08-21T07:04:29;33.40;66.70
11965;DHT22;6042;41.326;19.826;2023-08-21T07:07:00;33.50;66.40
11965;DHT22;6042;41.326;19.826;2023-08-21T07:09:28;33.70;66.50
11965;DHT22;6042;41.326;19.826;2023-08-21T07:11:58;33.70;66.00
11965;DHT22;6042;41.326;19.826;2023-08-21T07:14:26;33.70;66.10
11965;DHT22;6042;41.326;19.826;2023-08-21T07:16:55;33.70;65.80
11965;DHT22;6042;41.326;19.826;2023-08-21T07:19:23;33.70;66.60
11965;DHT22;6042;41.326;19.826;2023-08-21T07:21:51;33.70;66.10
11965;DHT22;6042;41.326;19.826;2023-08-21T07:24:20;33.70;65.90
11965;DHT22;6042;41.326;19.826;2023-08-21T07:26:48;33.90;65.90
11965;DHT22;6042;41.326;19.826;2023-08-21T07:29:18;33.90;65.90
11965;DHT22;6042;41.326;19.826;2023-08-21T07:31:47;33.90;64.90
11965;DHT22;6042;41.326;19.826;2023-08-21T07:34:15;34.00;65.10
11965;DHT22;6042;41.326;19.826;2023-08-21T07:36:44;34.10;65.10
11965;DHT22;6042;41.326;19.826;2023-08-21T07:39:12;34.20;64.40
11965;DHT22;6042;41.326;19.826;2023-08-21T07:41:40;34.30;63.80
11965;DHT22;6042;41.326;19.826;2023-08-21T07:44:09;34.20;64.80
11965;DHT22;6042;41.326;19.826;2023-08-21T07:46:39;34.20;63.80
11965;DHT22;6042;41.326;19.826;2023-08-21T07:49:08;34.30;63.20
11965;DHT22;6042;41.326;19.826;2023-08-21T07:51:36;34.40;63.40
11965;DHT22;6042;41.326;19.826;2023-08-21T07:54:05;34.30;65.00
11965;DHT22;6042;41.326;19.826;2023-08-21T07:56:33;34.20;64.00
11965;DHT22;6042;41.326;19.826;2023-08-21T07:59:02;34.10;62.80
11965;DHT22;6042;41.326;19.826;2023-08-21T08:01:36;34.10;62.80
11965;DHT22;6042;41.326;19.826;2023-08-21T08:04:05;34.40;63.00
11965;DHT22;6042;41.326;19.826;2023-08-21T08:06:34;34.80;62.20
11965;DHT22;6042;41.326;19.826;2023-08-21T08:09:02;34.70;62.50
11965;DHT22;6042;41.326;19.826;2023-08-21T08:11:31;34.80;62.00
11965;DHT22;6042;41.326;19.826;2023-08-21T08:14:00;34.70;62.60
11965;DHT22;6042;41.326;19.826;2023-08-21T08:16:28;34.70;62.40
11965;DHT22;6042;41.326;19.826;2023-08-21T08:18:57;34.80;61.10
11965;DHT22;6042;41.326;19.826;2023-08-21T08:21:27;34.80;59.70
11965;DHT22;6042;41.326;19.826;2023-08-21T08:23:57;34.80;59.80
11965;DHT22;6042;41.326;19.826;2023-08-21T08:26:25;34.90;60.60
11965;DHT22;6042;41.326;19.826;2023-08-21T08:28:53;35.00;61.50
11965;DHT22;6042;41.326;19.826;2023-08-21T08:31:22;34.90;62.40
11965;DHT22;6042;41.326;19.826;2023-08-21T08:33:52;34.80;62.00
11965;DHT22;6042;41.326;19.826;2023-08-21T08:36:21;34.80;61.10
11965;DHT22;6042;41.326;19.826;2023-08-21T08:38:51;34.80;61.20
11965;DHT22;6042;41.326;19.826;2023-08-21T08:41:25;35.00;62.50
11965;DHT22;6042;41.326;19.826;2023-08-21T08:43:57;35.10;62.80
11965;DHT22;6042;41.326;19.826;2023-08-21T08:46:28;35.10;60.70
11965;DHT22;6042;41.326;19.826;2023-08-21T08:48:57;35.10;59.70
11965;DHT22;6042;41.326;19.826;2023-08-21T08:51:28;35.20;59.80
11965;DHT22;6042;41.326;19.826;2023-08-21T08:54:00;35.40;59.20
11965;DHT22;6042;41.326;19.826;2023-08-21T08:56:28;35.30;59.70
11965;DHT22;6042;41.326;19.826;2023-08-21T08:58:57;35.30;59.20
11965;DHT22;6042;41.326;19.826;2023-08-21T09:01:25;35.30;59.60
11965;DHT22;6042;41.326;19.826;2023-08-21T09:03:54;35.40;59.40
11965;DHT22;6042;41.326;19.826;2023-08-21T09:06:22;35.50;58.70
11965;DHT22;6042;41.326;19.826;2023-08-21T09:08:53;35.50;58.70
11965;DHT22;6042;41.326;19.826;2023-08-21T09:11:24;35.30;58.70
11965;DHT22;6042;41.326;19.826;2023-08-21T09:13:53;35.20;59.80
11965;DHT22;6042;41.326;19.826;2023-08-21T09:16:25;35.00;60.00
11965;DHT22;6042;41.326;19.826;2023-08-21T09:18:56;34.90;60.50
11965;DHT22;6042;41.326;19.826;2023-08-21T09:21:25;35.00;61.00
11965;DHT22;6042;41.326;19.826;2023-08-21T09:23:58;34.90;60.80
11965;DHT22;6042;41.326;19.826;2023-08-21T09:26:31;34.80;60.00
11965;DHT22;6042;41.326;19.826;2023-08-21T09:29:03;34.90;59.80
11965;DHT22;6042;41.326;19.826;2023-08-21T09:31:33;35.00;61.90
11965;DHT22;6042;41.326;19.826;2023-08-21T09:34:06;35.10;60.80
11965;DHT22;6042;41.326;19.826;2023-08-21T09:36:35;35.20;59.20
11965;DHT22;6042;41.326;19.826;2023-08-21T09:39:04;35.30;58.70
11965;DHT22;6042;41.326;19.826;2023-08-21T09:41:34;35.30;58.40
11965;DHT22;6042;41.326;19.826;2023-08-21T09:44:03;35.40;59.30
11965;DHT22;6042;41.326;19.826;2023-08-21T09:46:32;35.40;59.40
11965;DHT22;6042;41.326;19.826;2023-08-21T09:49:01;35.50;59.50
11965;DHT22;6042;41.326;19.826;2023-08-21T09:51:31;35.40;58.40
11965;DHT22;6042;41.326;19.826;2023-08-21T09:54:00;35.50;58.90
11965;DHT22;6042;41.326;19.826;2023-08-21T09:56:33;35.50;60.00
11965;DHT22;6042;41.326;19.826;2023-08-21T09:59:02;35.60;59.20
11965;DHT22;6042;41.326;19.826;2023-08-21T10:01:31;35.70;59.20
11965;DHT22;6042;41.326;19.826;2023-08-21T10:04:03;35.70;59.20
11965;DHT22;6042;41.326;19.826;2023-08-21T10:06:34;35.70;60.80
11965;DHT22;6042;41.326;19.826;2023-08-21T10:09:04;35.50;59.00
11965;DHT22;6042;41.326;19.826;2023-08-21T10:11:36;35.30;60.20
11965;DHT22;6042;41.326;19.826;2023-08-21T10:14:05;35.30;57.80
11965;DHT22;6042;41.326;19.826;2023-08-21T10:16:35;35.50;58.00
11965;DHT22;6042;41.326;19.826;2023-08-21T10:19:04;35.60;57.80
11965;DHT22;6042;41.326;19.826;2023-08-21T10:21:35;35.60;57.80
11965;DHT22;6042;41.326;19.826;2023-08-21T10:24:04;35.40;58.20
11965;DHT22;6042;41.326;19.826;2023-08-21T10:26:39;35.60;57.90
11965;DHT22;6042;41.326;19.826;2023-08-21T10:29:13;35.60;57.70
11965;DHT22;6042;41.326;19.826;2023-08-21T10:31:41;35.70;57.00
11965;DHT22;6042;41.326;19.826;2023-08-21T10:34:12;35.80;56.60
11965;DHT22;6042;41.326;19.826;2023-08-21T10:37:02;35.80;57.20
11965;DHT22;6042;41.326;19.826;2023-08-21T10:39:31;35.80;56.90
11965;DHT22;6042;41.326;19.826;2023-08-21T10:42:04;35.80;56.80
11965;DHT22;6042;41.326;19.826;2023-08-21T10:44:51;35.90;57.30
11965;DHT22;6042;41.326;19.826;2023-08-21T10:47:21;36.20;56.90
11965;DHT22;6042;41.326;19.826;2023-08-21T10:49:52;36.20;57.20
11965;DHT22;6042;41.326;19.826;2023-08-21T10:52:23;36.40;55.80
11965;DHT22;6042;41.326;19.826;2023-08-21T10:54:53;36.60;55.30
11965;DHT22;6042;41.326;19.826;2023-08-21T10:57:24;36.80;55.30
11965;DHT22;6042;41.326;19.826;2023-08-21T10:59:57;36.80;54.90
11965;DHT22;6042;41.326;19.826;2023-08-21T11:02:27;36.70;55.50
11965;DHT22;6042;41.326;19.826;2023-08-21T11:04:56;36.60;56.10
11965;DHT22;6042;41.326;19.826;2023-08-21T11:07:26;36.80;56.00
11965;DHT22;6042;41.326;19.826;2023-08-21T11:09:56;37.10;55.00
11965;DHT22;6042;41.326;19.826;2023-08-21T11:12:25;37.20;54.40
11965;DHT22;6042;41.326;19.826;2023-08-21T11:14:54;37.10;54.90
11965;DHT22;6042;41.326;19.826;2023-08-21T11:17:22;36.90;55.00
11965;DHT22;6042;41.326;19.826;2023-08-21T11:19:51;37.00;54.90
11965;DHT22;6042;41.326;19.826;2023-08-21T11:22:19;37.00;55.00
11965;DHT22;6042;41.326;19.826;2023-08-21T11:24:48;36.90;54.10
11965;DHT22;6042;41.326;19.826;2023-08-21T11:27:18;37.30;53.90
11965;DHT22;6042;41.326;19.826;2023-08-21T11:29:52;37.70;54.30
11965;DHT22;6042;41.326;19.826;2023-08-21T11:32:22;37.80;53.20
11965;DHT22;6042;41.326;19.826;2023-08-21T11:34:52;37.90;53.30
11965;DHT22;6042;41.326;19.826;2023-08-21T11:37:22;37.80;53.40
11965;DHT22;6042;41.326;19.826;2023-08-21T11:39:53;38.00;52.40
11965;DHT22;6042;41.326;19.826;2023-08-21T11:42:22;38.10;52.60
11965;DHT22;6042;41.326;19.826;2023-08-21T11:44:59;38.10;52.00
11965;DHT22;6042;41.326;19.826;2023-08-21T11:47:31;38.20;52.00
11965;DHT22;6042;41.326;19.826;2023-08-21T11:50:02;38.40;51.40
11965;DHT22;6042;41.326;19.826;2023-08-21T11:52:32;38.40;51.70
11965;DHT22;6042;41.326;19.826;2023-08-21T11:55:02;38.30;51.80
11965;DHT22;6042;41.326;19.826;2023-08-21T11:57:35;38.10;51.80
11965;DHT22;6042;41.326;19.826;2023-08-21T12:00:09;37.80;51.80
11965;DHT22;6042;41.326;19.826;2023-08-21T12:02:40;37.60;52.80
11965;DHT22;6042;41.326;19.826;2023-08-21T12:05:14;37.70;52.70
11965;DHT22;6042;41.326;19.826;2023-08-21T12:07:45;38.00;53.70
11965;DHT22;6042;41.326;19.826;2023-08-21T12:10:13;38.00;54.30
11965;DHT22;6042;41.326;19.826;2023-08-21T12:12:42;38.00;53.90
11965;DHT22;6042;41.326;19.826;2023-08-21T12:15:11;38.20;53.80
11965;DHT22;6042;41.326;19.826;2023-08-21T12:17:40;38.30;52.50
11965;DHT22;6042;41.326;19.826;2023-08-21T12:20:09;38.20;52.20
11965;DHT22;6042;41.326;19.826;2023-08-21T12:22:39;38.10;51.70
11965;DHT22;6042;41.326;19.826;2023-08-21T12:25:08;38.20;51.80
11965;DHT22;6042;41.326;19.826;2023-08-21T12:27:37;38.30;52.00
11965;DHT22;6042;41.326;19.826;2023-08-21T12:30:08;38.70;52.20
11965;DHT22;6042;41.326;19.826;2023-08-21T12:32:38;38.60;52.40
11965;DHT22;6042;41.326;19.826;2023-08-21T12:35:08;38.40;51.20
11965;DHT22;6042;41.326;19.826;2023-08-21T12:37:39;38.30;51.60
11965;DHT22;6042;41.326;19.826;2023-08-21T12:40:08;38.10;51.10
11965;DHT22;6042;41.326;19.826;2023-08-21T12:42:36;38.30;51.50
11965;DHT22;6042;41.326;19.826;2023-08-21T12:45:06;38.60;50.70
11965;DHT22;6042;41.326;19.826;2023-08-21T12:47:34;38.90;50.80
11965;DHT22;6042;41.326;19.826;2023-08-21T12:50:06;39.00;50.00
11965;DHT22;6042;41.326;19.826;2023-08-21T12:52:35;38.90;49.30
11965;DHT22;6042;41.326;19.826;2023-08-21T12:55:04;39.10;49.20
11965;DHT22;6042;41.326;19.826;2023-08-21T12:57:33;39.10;48.60
11965;DHT22;6042;41.326;19.826;2023-08-21T13:00:02;39.20;49.00
11965;DHT22;6042;41.326;19.826;2023-08-21T13:02:31;39.50;50.90
11965;DHT22;6042;41.326;19.826;2023-08-21T13:05:00;39.50;51.70
11965;DHT22;6042;41.326;19.826;2023-08-21T13:07:29;39.60;50.80
11965;DHT22;6042;41.326;19.826;2023-08-21T13:09:58;39.40;50.70
11965;DHT22;6042;41.326;19.826;2023-08-21T13:12:27;39.40;50.00
11965;DHT22;6042;41.326;19.826;2023-08-21T13:14:55;39.40;49.20
11965;DHT22;6042;41.326;19.826;2023-08-21T13:17:25;39.60;49.80
11965;DHT22;6042;41.326;19.826;2023-08-21T13:19:54;39.80;50.50
11965;DHT22;6042;41.326;19.826;2023-08-21T13:22:22;39.70;50.60
11965;DHT22;6042;41.326;19.826;2023-08-21T13:24:52;39.60;51.00
11965;DHT22;6042;41.326;19.826;2023-08-21T13:27:21;39.60;50.50
11965;DHT22;6042;41.326;19.826;2023-08-21T13:29:49;39.70;51.40
11965;DHT22;6042;41.326;19.826;2023-08-21T13:32:18;39.80;50.50
11965;DHT22;6042;41.326;19.826;2023-08-21T13:34:46;40.20;50.70
11965;DHT22;6042;41.326;19.826;2023-08-21T13:37:14;40.80;50.10
11965;DHT22;6042;41.326;19.826;2023-08-21T13:39:43;41.20;50.10
11965;DHT22;6042;41.326;19.826;2023-08-21T13:42:13;41.90;49.50
11965;DHT22;6042;41.326;19.826;2023-08-21T13:44:41;42.00;49.00
11965;DHT22;6042;41.326;19.826;2023-08-21T13:47:09;41.40;49.20
11965;DHT22;6042;41.326;19.826;2023-08-21T13:49:38;41.30;51.20
11965;DHT22;6042;41.326;19.826;2023-08-21T13:52:07;40.80;52.30
11965;DHT22;6042;41.326;19.826;2023-08-21T13:54:35;41.60;54.30
11965;DHT22;6042;41.326;19.826;2023-08-21T13:57:04;42.20;53.60
11965;DHT22;6042;41.326;19.826;2023-08-21T13:59:34;42.50;52.10
11965;DHT22;6042;41.326;19.826;2023-08-21T14:02:02;43.40;50.40
11965;DHT22;6042;41.326;19.826;2023-08-21T14:04:32;43.40;50.00
11965;DHT22;6042;41.326;19.826;2023-08-21T14:07:01;43.40;49.60
11965;DHT22;6042;41.326;19.826;2023-08-21T14:09:29;42.90;50.20
11965;DHT22;6042;41.326;19.826;2023-08-21T14:11:58;43.00;50.40
11965;DHT22;6042;41.326;19.826;2023-08-21T14:14:26;42.90;50.40
11965;DHT22;6042;41.326;19.826;2023-08-21T14:16:56;43.10;50.50
11965;DHT22;6042;41.326;19.826;2023-08-21T14:19:25;43.70;49.50
11965;DHT22;6042;41.326;19.826;2023-08-21T14:21:54;44.30;48.50
11965;DHT22;6042;41.326;19.826;2023-08-21T14:24:23;43.10;50.00
11965;DHT22;6042;41.326;19.826;2023-08-21T14:26:51;42.80;51.00
11965;DHT22;6042;41.326;19.826;2023-08-21T14:29:20;42.90;51.00
11965;DHT22;6042;41.326;19.826;2023-08-21T14:31:51;43.30;50.90
11965;DHT22;6042;41.326;19.826;2023-08-21T14:34:21;42.90;50.90
11965;DHT22;6042;41.326;19.826;2023-08-21T14:36:50;43.40;50.30
11965;DHT22;6042;41.326;19.826;2023-08-21T14:39:18;43.40;50.30
11965;DHT22;6042;41.326;19.826;2023-08-21T14:41:47;43.60;49.80
11965;DHT22;6042;41.326;19.826;2023-08-21T14:44:15;44.60;49.30
11965;DHT22;6042;41.326;19.826;2023-08-21T14:46:43;44.90;48.60
11965;DHT22;6042;41.326;19.826;2023-08-21T14:49:12;45.20;47.60
11965;DHT22;6042;41.326;19.826;2023-08-21T14:51:42;44.20;48.30
11965;DHT22;6042;41.326;19.826;2023-08-21T14:54:11;42.60;50.10
11965;DHT22;6042;41.326;19.826;2023-08-21T14:56:40;42.40;50.60
11965;DHT22;6042;41.326;19.826;2023-08-21T14:59:08;42.40;50.80
11965;DHT22;6042;41.326;19.826;2023-08-21T15:01:38;42.80;50.40
11965;DHT22;6042;41.326;19.826;2023-08-21T15:04:07;42.50;50.60
11965;DHT22;6042;41.326;19.826;2023-08-21T15:06:36;42.00;51.40
11965;DHT22;6042;41.326;19.826;2023-08-21T15:09:07;42.20;51.20
11965;DHT22;6042;41.326;19.826;2023-08-21T15:11:36;42.50;51.00
11965;DHT22;6042;41.326;19.826;2023-08-21T15:14:09;41.80;51.70
11965;DHT22;6042;41.326;19.826;2023-08-21T15:16:38;42.50;51.50
11965;DHT22;6042;41.326;19.826;2023-08-21T15:19:08;42.50;51.00
11965;DHT22;6042;41.326;19.826;2023-08-21T15:21:36;41.30;52.50
11965;DHT22;6042;41.326;19.826;2023-08-21T15:24:10;40.60;53.60
11965;DHT22;6042;41.326;19.826;2023-08-21T15:26:39;39.20;55.30
11965;DHT22;6042;41.326;19.826;2023-08-21T15:29:07;38.20;57.10
11965;DHT22;6042;41.326;19.826;2023-08-21T15:31:35;37.70;58.10
11965;DHT22;6042;41.326;19.826;2023-08-21T15:34:04;37.30;58.40
11965;DHT22;6042;41.326;19.826;2023-08-21T15:36:32;36.90;59.90
11965;DHT22;6042;41.326;19.826;2023-08-21T15:39:01;36.80;59.70
11965;DHT22;6042;41.326;19.826;2023-08-21T15:41:32;36.50;60.00
11965;DHT22;6042;41.326;19.826;2023-08-21T15:44:00;36.10;61.20